sensor_id;sensor_type;location;lat;lon;timestamp;temperature;humidity
24091;DHT22;12272;52.426;17.100;2022-11-20T00:02:44;-0.50;99.90
24091;DHT22;12272;52.426;17.100;2022-11-20T00:07:46;-0.70;99.90
24091;DHT22;12272;52.426;17.100;2022-11-20T00:12:49;-0.80;99.90
24091;DHT22;12272;52.426;17.100;2022-11-20T00:17:51;-0.90;99.90
24091;DHT22;12272;52.426;17.100;2022-11-20T00:22:53;-1.00;99.90
24091;DHT22;12272;52.426;17.100;2022-11-20T00:27:56;-1.00;99.90
24091;DHT22;12272;52.426;17.100;2022-11-20T00:32:59;-1.10;99.90
24091;DHT22;12272;52.426;17.100;2022-11-20T00:38:01;-1.10;99.90
24091;DHT22;12272;52.426;17.100;2022-11-20T00:43:03;-1.10;99.90
24091;DHT22;12272;52.426;17.100;2022-11-20T00:48:06;-1.20;99.90
24091;DHT22;12272;52.426;17.100;2022-11-20T00:53:08;-1.20;99.90
24091;DHT22;12272;52.426;17.100;2022-11-20T00:58:11;-1.30;99.90
24091;DHT22;12272;52.426;17.100;2022-11-20T01:03:17;-1.30;99.90
24091;DHT22;12272;52.426;17.100;2022-11-20T01:08:33;-1.30;99.90
24091;DHT22;12272;52.426;17.100;2022-11-20T01:13:36;-1.20;99.90
24091;DHT22;12272;52.426;17.100;2022-11-20T01:18:44;-1.30;99.90
24091;DHT22;12272;52.426;17.100;2022-11-20T01:23:47;-1.20;99.90
24091;DHT22;12272;52.426;17.100;2022-11-20T01:28:50;-1.20;99.90
24091;DHT22;12272;52.426;17.100;2022-11-20T01:33:55;-1.30;99.90
24091;DHT22;12272;52.426;17.100;2022-11-20T01:39:00;-1.30;99.90
24091;DHT22;12272;52.426;17.100;2022-11-20T01:44:04;-1.40;99.90
24091;DHT22;12272;52.426;17.100;2022-11-20T01:54:25;-1.40;99.90
24091;DHT22;12272;52.426;17.100;2022-11-20T01:59:30;-1.30;99.90
24091;DHT22;12272;52.426;17.100;2022-11-20T02:04:33;-1.30;99.90
24091;DHT22;12272;52.426;17.100;2022-11-20T02:09:36;-1.30;99.90
24091;DHT22;12272;52.426;17.100;2022-11-20T02:14:38;-1.30;99.90
24091;DHT22;12272;52.426;17.100;2022-11-20T02:19:40;-1.30;99.90
24091;DHT22;12272;52.426;17.100;2022-11-20T02:24:45;-1.30;99.90
24091;DHT22;12272;52.426;17.100;2022-11-20T02:30:01;-1.40;99.90
24091;DHT22;12272;52.426;17.100;2022-11-20T02:40:33;-1.40;99.90
24091;DHT22;12272;52.426;17.100;2022-11-20T02:45:36;-1.30;99.90
24091;DHT22;12272;52.426;17.100;2022-11-20T02:50:39;-1.30;99.90
24091;DHT22;12272;52.426;17.100;2022-11-20T02:55:42;-1.30;99.90
24091;DHT22;12272;52.426;17.100;2022-11-20T03:00:44;-1.30;99.90
24091;DHT22;12272;52.426;17.100;2022-11-20T03:05:47;-1.30;99.90
24091;DHT22;12272;52.426;17.100;2022-11-20T03:10:49;-1.20;99.90
24091;DHT22;12272;52.426;17.100;2022-11-20T03:15:52;-1.20;99.90
24091;DHT22;12272;52.426;17.100;2022-11-20T03:20:57;-1.20;99.90
24091;DHT22;12272;52.426;17.100;2022-11-20T03:26:12;-1.20;99.90
24091;DHT22;12272;52.426;17.100;2022-11-20T03:31:17;-1.20;99.90
24091;DHT22;12272;52.426;17.100;2022-11-20T03:36:20;-1.20;99.90
24091;DHT22;12272;52.426;17.100;2022-11-20T03:41:28;-1.20;99.90
24091;DHT22;12272;52.426;17.100;2022-11-20T03:46:32;-1.20;99.90
24091;DHT22;12272;52.426;17.100;2022-11-20T03:51:35;-1.20;99.90
24091;DHT22;12272;52.426;17.100;2022-11-20T03:56:38;-1.20;99.90
24091;DHT22;12272;52.426;17.100;2022-11-20T04:01:41;-1.20;99.90
24091;DHT22;12272;52.426;17.100;2022-11-20T04:06:50;-1.20;99.90
24091;DHT22;12272;52.426;17.100;2022-11-20T04:11:52;-1.20;99.90
24091;DHT22;12272;52.426;17.100;2022-11-20T04:16:55;-1.20;99.90
24091;DHT22;12272;52.426;17.100;2022-11-20T04:21:57;-1.20;99.90
24091;DHT22;12272;52.426;17.100;2022-11-20T04:27:00;-1.20;99.90
24091;DHT22;12272;52.426;17.100;2022-11-20T04:32:02;-1.20;99.90
24091;DHT22;12272;52.426;17.100;2022-11-20T04:37:04;-1.20;99.90
24091;DHT22;12272;52.426;17.100;2022-11-20T04:42:08;-1.20;99.90
24091;DHT22;12272;52.426;17.100;2022-11-20T04:47:30;-1.20;99.90
24091;DHT22;12272;52.426;17.100;2022-11-20T04:52:32;-1.20;99.90
24091;DHT22;12272;52.426;17.100;2022-11-20T04:57:35;-1.20;99.90
24091;DHT22;12272;52.426;17.100;2022-11-20T05:02:37;-1.20;99.90
24091;DHT22;12272;52.426;17.100;2022-11-20T05:07:40;-1.20;99.90
24091;DHT22;12272;52.426;17.100;2022-11-20T05:12:42;-1.20;99.90
24091;DHT22;12272;52.426;17.100;2022-11-20T05:17:49;-1.20;99.90
24091;DHT22;12272;52.426;17.100;2022-11-20T05:22:51;-1.20;99.90
24091;DHT22;12272;52.426;17.100;2022-11-20T05:27:54;-1.20;99.90
24091;DHT22;12272;52.426;17.100;2022-11-20T05:32:56;-1.20;99.90
24091;DHT22;12272;52.426;17.100;2022-11-20T05:37:59;-1.20;99.90
24091;DHT22;12272;52.426;17.100;2022-11-20T05:43:01;-1.20;99.90
24091;DHT22;12272;52.426;17.100;2022-11-20T05:48:04;-1.20;99.90
24091;DHT22;12272;52.426;17.100;2022-11-20T05:53:06;-1.30;99.90
24091;DHT22;12272;52.426;17.100;2022-11-20T05:58:09;-1.30;99.90
24091;DHT22;12272;52.426;17.100;2022-11-20T06:03:11;-1.30;99.90
24091;DHT22;12272;52.426;17.100;2022-11-20T06:08:14;-1.40;99.90
24091;DHT22;12272;52.426;17.100;2022-11-20T06:13:16;-1.40;99.90
24091;DHT22;12272;52.426;17.100;2022-11-20T06:18:19;-1.40;99.90
24091;DHT22;12272;52.426;17.100;2022-11-20T06:23:22;-1.40;99.90
24091;DHT22;12272;52.426;17.100;2022-11-20T06:28:24;-1.40;99.90
24091;DHT22;12272;52.426;17.100;2022-11-20T06:33:27;-1.40;99.90
24091;DHT22;12272;52.426;17.100;2022-11-20T06:38:30;-1.40;99.90
24091;DHT22;12272;52.426;17.100;2022-11-20T06:43:33;-1.40;99.90
24091;DHT22;12272;52.426;17.100;2022-11-20T06:48:35;-1.40;99.90
24091;DHT22;12272;52.426;17.100;2022-11-20T06:53:38;-1.40;99.90
24091;DHT22;12272;52.426;17.100;2022-11-20T06:58:40;-1.40;99.90
24091;DHT22;12272;52.426;17.100;2022-11-20T07:03:43;-1.30;99.90
24091;DHT22;12272;52.426;17.100;2022-11-20T07:08:45;-1.40;99.90
24091;DHT22;12272;52.426;17.100;2022-11-20T07:13:49;-1.30;99.90
24091;DHT22;12272;52.426;17.100;2022-11-20T07:18:52;-1.30;99.90
24091;DHT22;12272;52.426;17.100;2022-11-20T07:23:54;-1.30;99.90
24091;DHT22;12272;52.426;17.100;2022-11-20T07:28:57;-1.20;99.90
24091;DHT22;12272;52.426;17.100;2022-11-20T07:33:59;-1.20;99.90
24091;DHT22;12272;52.426;17.100;2022-11-20T07:39:02;-1.10;99.90
24091;DHT22;12272;52.426;17.100;2022-11-20T07:44:05;-1.00;99.90
24091;DHT22;12272;52.426;17.100;2022-11-20T07:49:07;-1.00;99.90
24091;DHT22;12272;52.426;17.100;2022-11-20T07:54:09;-1.00;99.90
24091;DHT22;12272;52.426;17.100;2022-11-20T07:59:12;-0.90;99.90
24091;DHT22;12272;52.426;17.100;2022-11-20T08:04:15;-0.90;99.90
24091;DHT22;12272;52.426;17.100;2022-11-20T08:09:18;-0.70;99.90
24091;DHT22;12272;52.426;17.100;2022-11-20T08:14:21;-0.70;99.90
24091;DHT22;12272;52.426;17.100;2022-11-20T08:19:23;-0.60;99.90
24091;DHT22;12272;52.426;17.100;2022-11-20T08:24:26;-0.50;99.90
24091;DHT22;12272;52.426;17.100;2022-11-20T08:29:29;-0.40;99.90
24091;DHT22;12272;52.426;17.100;2022-11-20T08:34:32;-0.40;99.90
24091;DHT22;12272;52.426;17.100;2022-11-20T08:39:34;-0.40;99.90
24091;DHT22;12272;52.426;17.100;2022-11-20T08:44:37;-0.40;99.90
24091;DHT22;12272;52.426;17.100;2022-11-20T08:49:39;-0.40;99.90
24091;DHT22;12272;52.426;17.100;2022-11-20T08:54:42;-0.50;99.90
24091;DHT22;12272;52.426;17.100;2022-11-20T08:59:44;-0.50;99.90
24091;DHT22;12272;52.426;17.100;2022-11-20T09:05:08;-0.40;99.90
24091;DHT22;12272;52.426;17.100;2022-11-20T09:10:10;-0.30;99.90
24091;DHT22;12272;52.426;17.100;2022-11-20T09:15:28;-0.20;99.90
24091;DHT22;12272;52.426;17.100;2022-11-20T09:20:31;-0.10;99.90
24091;DHT22;12272;52.426;17.100;2022-11-20T09:25:34;0.00;99.90
24091;DHT22;12272;52.426;17.100;2022-11-20T09:30:36;0.10;99.90
24091;DHT22;12272;52.426;17.100;2022-11-20T09:35:39;0.10;99.90
24091;DHT22;12272;52.426;17.100;2022-11-20T09:40:49;0.20;99.90
24091;DHT22;12272;52.426;17.100;2022-11-20T09:56:52;0.50;99.90
24091;DHT22;12272;52.426;17.100;2022-11-20T10:01:56;0.50;99.90
24091;DHT22;12272;52.426;17.100;2022-11-20T10:07:43;0.60;99.90
24091;DHT22;12272;52.426;17.100;2022-11-20T10:29:14;1.20;99.90
24091;DHT22;12272;52.426;17.100;2022-11-20T10:34:21;1.30;99.90
24091;DHT22;12272;52.426;17.100;2022-11-20T10:44:52;1.50;99.90
24091;DHT22;12272;52.426;17.100;2022-11-20T10:50:11;1.60;99.90
24091;DHT22;12272;52.426;17.100;2022-11-20T11:00:50;2.10;99.90
24091;DHT22;12272;52.426;17.100;2022-11-20T11:06:10;2.20;99.90
24091;DHT22;12272;52.426;17.100;2022-11-20T11:11:29;2.20;99.90
24091;DHT22;12272;52.426;17.100;2022-11-20T11:16:33;2.00;99.90
24091;DHT22;12272;52.426;17.100;2022-11-20T11:21:35;1.80;99.90
24091;DHT22;12272;52.426;17.100;2022-11-20T11:26:58;1.70;99.90
24091;DHT22;12272;52.426;17.100;2022-11-20T11:32:20;1.70;99.90
24091;DHT22;12272;52.426;17.100;2022-11-20T11:37:25;1.40;99.90
24091;DHT22;12272;52.426;17.100;2022-11-20T11:42:29;1.20;99.90
24091;DHT22;12272;52.426;17.100;2022-11-20T11:58:16;1.70;99.90
24091;DHT22;12272;52.426;17.100;2022-11-20T12:03:29;1.10;99.90
24091;DHT22;12272;52.426;17.100;2022-11-20T12:08:55;0.80;99.90
24091;DHT22;12272;52.426;17.100;2022-11-20T12:19:37;1.40;99.90
24091;DHT22;12272;52.426;17.100;2022-11-20T12:30:20;0.70;99.90
24091;DHT22;12272;52.426;17.100;2022-11-20T12:46:10;0.90;99.90
24091;DHT22;12272;52.426;17.100;2022-11-20T13:02:36;0.60;99.90
24091;DHT22;12272;52.426;17.100;2022-11-20T13:07:43;0.50;99.90
24091;DHT22;12272;52.426;17.100;2022-11-20T13:13:00;0.50;99.90
24091;DHT22;12272;52.426;17.100;2022-11-20T13:18:09;0.50;99.90
24091;DHT22;12272;52.426;17.100;2022-11-20T13:23:26;0.50;99.90
24091;DHT22;12272;52.426;17.100;2022-11-20T13:28:30;0.40;99.90
24091;DHT22;12272;52.426;17.100;2022-11-20T13:33:39;0.20;99.90
24091;DHT22;12272;52.426;17.100;2022-11-20T13:38:52;0.20;99.90
24091;DHT22;12272;52.426;17.100;2022-11-20T13:44:22;0.20;99.90
24091;DHT22;12272;52.426;17.100;2022-11-20T13:49:46;0.30;99.90
24091;DHT22;12272;52.426;17.100;2022-11-20T14:00:20;0.20;99.90
24091;DHT22;12272;52.426;17.100;2022-11-20T14:05:23;0.10;99.90
24091;DHT22;12272;52.426;17.100;2022-11-20T14:10:28;0.10;99.90
24091;DHT22;12272;52.426;17.100;2022-11-20T14:15:34;0.00;99.90
24091;DHT22;12272;52.426;17.100;2022-11-20T14:20:43;0.50;99.90
24091;DHT22;12272;52.426;17.100;2022-11-20T14:25:45;0.10;99.90
24091;DHT22;12272;52.426;17.100;2022-11-20T14:30:48;0.00;99.90
24091;DHT22;12272;52.426;17.100;2022-11-20T14:35:54;-0.10;99.90
24091;DHT22;12272;52.426;17.100;2022-11-20T14:41:19;-0.20;99.90
24091;DHT22;12272;52.426;17.100;2022-11-20T14:46:23;-0.30;99.90
24091;DHT22;12272;52.426;17.100;2022-11-20T14:51:38;-0.40;99.90
24091;DHT22;12272;52.426;17.100;2022-11-20T14:57:00;-0.40;99.90
24091;DHT22;12272;52.426;17.100;2022-11-20T15:02:10;-0.50;99.90
24091;DHT22;12272;52.426;17.100;2022-11-20T15:07:33;-0.50;99.90
24091;DHT22;12272;52.426;17.100;2022-11-20T15:13:00;-0.60;99.90
24091;DHT22;12272;52.426;17.100;2022-11-20T15:18:04;-0.70;99.90
24091;DHT22;12272;52.426;17.100;2022-11-20T15:23:15;-0.60;99.90
24091;DHT22;12272;52.426;17.100;2022-11-20T15:28:23;-0.60;99.90
24091;DHT22;12272;52.426;17.100;2022-11-20T15:33:30;-0.60;99.90
24091;DHT22;12272;52.426;17.100;2022-11-20T15:38:33;-0.60;99.90
24091;DHT22;12272;52.426;17.100;2022-11-20T15:43:36;-0.60;99.90
24091;DHT22;12272;52.426;17.100;2022-11-20T15:48:48;-0.70;99.90
24091;DHT22;12272;52.426;17.100;2022-11-20T15:53:54;-0.70;99.90
24091;DHT22;12272;52.426;17.100;2022-11-20T15:58:57;-0.80;99.90
24091;DHT22;12272;52.426;17.100;2022-11-20T16:04:00;-0.80;99.90
24091;DHT22;12272;52.426;17.100;2022-11-20T16:09:02;-0.80;99.90
24091;DHT22;12272;52.426;17.100;2022-11-20T16:14:08;-0.80;99.90
24091;DHT22;12272;52.426;17.100;2022-11-20T16:19:30;-0.90;99.90
24091;DHT22;12272;52.426;17.100;2022-11-20T16:24:32;-0.90;99.90
24091;DHT22;12272;52.426;17.100;2022-11-20T16:29:36;-0.90;99.90
24091;DHT22;12272;52.426;17.100;2022-11-20T16:34:39;-0.90;99.90
24091;DHT22;12272;52.426;17.100;2022-11-20T16:39:41;-1.00;99.90
24091;DHT22;12272;52.426;17.100;2022-11-20T16:44:45;-1.00;99.90
24091;DHT22;12272;52.426;17.100;2022-11-20T16:49:48;-1.00;99.90
24091;DHT22;12272;52.426;17.100;2022-11-20T16:54:51;-0.90;99.90
24091;DHT22;12272;52.426;17.100;2022-11-20T16:59:53;-0.90;99.90
24091;DHT22;12272;52.426;17.100;2022-11-20T17:05:03;-0.80;99.90
24091;DHT22;12272;52.426;17.100;2022-11-20T17:10:06;-0.90;99.90
24091;DHT22;12272;52.426;17.100;2022-11-20T17:15:08;-0.90;99.90
24091;DHT22;12272;52.426;17.100;2022-11-20T17:20:11;-1.00;99.90
24091;DHT22;12272;52.426;17.100;2022-11-20T17:25:13;-1.00;99.90
24091;DHT22;12272;52.426;17.100;2022-11-20T17:30:16;-1.10;99.90
24091;DHT22;12272;52.426;17.100;2022-11-20T17:35:19;-1.10;99.90
24091;DHT22;12272;52.426;17.100;2022-11-20T17:40:21;-1.00;99.90
24091;DHT22;12272;52.426;17.100;2022-11-20T17:45:28;-1.10;99.90
24091;DHT22;12272;52.426;17.100;2022-11-20T17:50:31;-1.20;99.90
24091;DHT22;12272;52.426;17.100;2022-11-20T17:55:33;-1.40;99.90
24091;DHT22;12272;52.426;17.100;2022-11-20T18:01:04;-1.60;99.90
24091;DHT22;12272;52.426;17.100;2022-11-20T18:06:15;-1.90;99.90
24091;DHT22;12272;52.426;17.100;2022-11-20T18:11:22;-2.00;99.90
24091;DHT22;12272;52.426;17.100;2022-11-20T18:16:26;-2.00;99.90
24091;DHT22;12272;52.426;17.100;2022-11-20T18:21:30;-1.90;99.90
24091;DHT22;12272;52.426;17.100;2022-11-20T18:26:33;-1.90;99.90
24091;DHT22;12272;52.426;17.100;2022-11-20T18:31:40;-1.80;99.90
24091;DHT22;12272;52.426;17.100;2022-11-20T18:36:43;-1.80;99.90
24091;DHT22;12272;52.426;17.100;2022-11-20T18:41:46;-1.70;99.90
24091;DHT22;12272;52.426;17.100;2022-11-20T18:47:10;-1.50;99.90
24091;DHT22;12272;52.426;17.100;2022-11-20T18:52:26;-1.40;99.90
24091;DHT22;12272;52.426;17.100;2022-11-20T18:57:29;-1.40;99.90
24091;DHT22;12272;52.426;17.100;2022-11-20T19:02:32;-1.30;99.90
24091;DHT22;12272;52.426;17.100;2022-11-20T19:07:42;-1.30;99.90
24091;DHT22;12272;52.426;17.100;2022-11-20T19:12:45;-1.40;99.90
24091;DHT22;12272;52.426;17.100;2022-11-20T19:17:47;-1.50;99.90
24091;DHT22;12272;52.426;17.100;2022-11-20T19:22:50;-1.60;99.90
24091;DHT22;12272;52.426;17.100;2022-11-20T19:27:52;-1.40;99.90
24091;DHT22;12272;52.426;17.100;2022-11-20T19:32:54;-1.50;99.90
24091;DHT22;12272;52.426;17.100;2022-11-20T19:37:59;-1.40;99.90
24091;DHT22;12272;52.426;17.100;2022-11-20T19:43:06;-1.40;99.90
24091;DHT22;12272;52.426;17.100;2022-11-20T19:48:09;-1.30;99.90
24091;DHT22;12272;52.426;17.100;2022-11-20T19:53:11;-1.20;99.90
24091;DHT22;12272;52.426;17.100;2022-11-20T19:58:14;-1.00;99.90
24091;DHT22;12272;52.426;17.100;2022-11-20T20:03:17;-0.80;99.90
24091;DHT22;12272;52.426;17.100;2022-11-20T20:08:20;-0.80;99.90
24091;DHT22;12272;52.426;17.100;2022-11-20T20:13:22;-0.80;99.90
24091;DHT22;12272;52.426;17.100;2022-11-20T20:18:25;-0.80;99.90
24091;DHT22;12272;52.426;17.100;2022-11-20T20:23:27;-0.80;99.90
24091;DHT22;12272;52.426;17.100;2022-11-20T20:28:30;-0.80;99.90
24091;DHT22;12272;52.426;17.100;2022-11-20T20:33:34;-0.90;99.90
24091;DHT22;12272;52.426;17.100;2022-11-20T20:38:37;-0.90;99.90
24091;DHT22;12272;52.426;17.100;2022-11-20T20:43:40;-0.90;99.90
24091;DHT22;12272;52.426;17.100;2022-11-20T20:49:01;-1.20;99.90
24091;DHT22;12272;52.426;17.100;2022-11-20T20:54:05;-1.60;99.90
24091;DHT22;12272;52.426;17.100;2022-11-20T20:59:07;-2.00;99.90
24091;DHT22;12272;52.426;17.100;2022-11-20T21:04:10;-2.30;99.90
24091;DHT22;12272;52.426;17.100;2022-11-20T21:09:13;-2.60;99.90
24091;DHT22;12272;52.426;17.100;2022-11-20T21:14:15;-2.80;99.90
24091;DHT22;12272;52.426;17.100;2022-11-20T21:19:18;-3.00;99.90
24091;DHT22;12272;52.426;17.100;2022-11-20T21:24:21;-3.20;99.90
24091;DHT22;12272;52.426;17.100;2022-11-20T21:29:25;-3.30;99.90
24091;DHT22;12272;52.426;17.100;2022-11-20T21:34:28;-3.50;99.90
24091;DHT22;12272;52.426;17.100;2022-11-20T21:39:30;-3.50;99.90
24091;DHT22;12272;52.426;17.100;2022-11-20T21:44:33;-3.60;99.90
24091;DHT22;12272;52.426;17.100;2022-11-20T21:49:37;-3.70;99.90
24091;DHT22;12272;52.426;17.100;2022-11-20T21:54:40;-3.70;99.90
24091;DHT22;12272;52.426;17.100;2022-11-20T21:59:43;-3.80;99.90
24091;DHT22;12272;52.426;17.100;2022-11-20T22:04:45;-3.80;99.90
24091;DHT22;12272;52.426;17.100;2022-11-20T22:09:47;-3.90;99.90
24091;DHT22;12272;52.426;17.100;2022-11-20T22:14:50;-3.90;99.90
24091;DHT22;12272;52.426;17.100;2022-11-20T22:19:52;-3.90;99.90
24091;DHT22;12272;52.426;17.100;2022-11-20T22:24:55;-4.10;99.90
24091;DHT22;12272;52.426;17.100;2022-11-20T22:30:06;-4.10;99.90
24091;DHT22;12272;52.426;17.100;2022-11-20T22:35:08;-4.20;99.90
24091;DHT22;12272;52.426;17.100;2022-11-20T22:40:12;-3.80;99.90
24091;DHT22;12272;52.426;17.100;2022-11-20T22:45:15;-3.10;99.90
24091;DHT22;12272;52.426;17.100;2022-11-20T22:50:17;-0.90;99.90
24091;DHT22;12272;52.426;17.100;2022-11-20T22:55:20;-0.20;99.90
24091;DHT22;12272;52.426;17.100;2022-11-20T23:00:22;0.30;99.90
24091;DHT22;12272;52.426;17.100;2022-11-20T23:05:24;0.20;99.90
24091;DHT22;12272;52.426;17.100;2022-11-20T23:10:27;0.00;99.90
24091;DHT22;12272;52.426;17.100;2022-11-20T23:15:31;0.90;99.90
24091;DHT22;12272;52.426;17.100;2022-11-20T23:20:35;1.00;99.90
24091;DHT22;12272;52.426;17.100;2022-11-20T23:25:37;0.70;99.90
24091;DHT22;12272;52.426;17.100;2022-11-20T23:30:40;0.20;99.90
24091;DHT22;12272;52.426;17.100;2022-11-20T23:35:46;0.20;99.90
24091;DHT22;12272;52.426;17.100;2022-11-20T23:40:49;0.00;99.90
24091;DHT22;12272;52.426;17.100;2022-11-20T23:45:57;-0.20;99.90
24091;DHT22;12272;52.426;17.100;2022-11-20T23:51:00;0.20;99.90
24091;DHT22;12272;52.426;17.100;2022-11-20T23:56:04;0.00;99.90
